Time;durP1;ratioP1;P1;durP2;ratioP2;P2;SDS_P1;SDS_P2;PMS_P1;PMS_P2;Temp;Humidity;BMP_temperature;BMP_pressure;BME280_temperature;BME280_humidity;BME280_pressure;Samples;Min_cycle;Max_cycle;Signal;HPM_P1;HPM_P2
2021/09/03 00:01:49;;;;;;;3.72;0.90;;;;;;;18.30;54.97;101221.59;4968712;28;20053;-72
2021/09/03 00:04:14;;;;;;;1.77;1.67;;;;;;;18.27;54.40;101224.97;4967869;28;20047;-77
2021/09/03 00:06:40;;;;;;;0.68;0.60;;;;;;;18.24;54.74;101229.16;4971550;28;20026;-74
2021/09/03 00:09:05;;;;;;;0.77;0.73;;;;;;;18.18;54.90;101219.28;4974351;28;20114;-73
2021/09/03 00:11:31;;;;;;;1.10;1.00;;;;;;;18.14;54.71;101218.22;4953945;28;20027;-73
2021/09/03 00:13:56;;;;;;;0.98;0.98;;;;;;;18.09;54.86;101198.91;4974413;28;20031;-74
2021/09/03 00:16:22;;;;;;;1.85;0.85;;;;;;;18.09;55.23;101204.44;4986437;28;20395;-74
2021/09/03 00:18:47;;;;;;;0.68;0.68;;;;;;;18.10;55.29;101211.63;4955758;28;20029;-73
2021/09/03 00:21:13;;;;;;;0.90;0.90;;;;;;;18.04;55.25;101204.53;4975395;28;20494;-73
2021/09/03 00:23:39;;;;;;;1.48;1.00;;;;;;;18.05;54.94;101214.47;4973921;28;20105;-74
2021/09/03 00:26:04;;;;;;;1.40;0.95;;;;;;;18.02;55.04;101212.28;4953256;28;20019;-71
2021/09/03 00:28:29;;;;;;;2.30;1.50;;;;;;;18.02;55.63;101203.97;4973333;28;20031;-72
2021/09/03 00:30:55;;;;;;;1.40;1.30;;;;;;;18.01;55.62;101207.88;4969752;28;20027;-72
2021/09/03 00:33:20;;;;;;;1.25;1.15;;;;;;;17.95;55.28;101199.66;4981470;28;20573;-73
2021/09/03 00:35:46;;;;;;;0.70;0.70;;;;;;;17.95;55.74;101201.59;4974906;28;20053;-73
2021/09/03 00:38:11;;;;;;;1.17;1.00;;;;;;;17.93;55.74;101201.91;4976474;28;20401;-75
2021/09/03 00:40:37;;;;;;;0.90;0.90;;;;;;;17.94;55.69;101200.75;4963727;28;20038;-73
2021/09/03 00:43:02;;;;;;;1.30;1.00;;;;;;;17.92;55.97;101189.16;4976784;28;20370;-71
2021/09/03 00:45:28;;;;;;;0.93;0.75;;;;;;;17.91;55.32;101181.97;4970475;28;20047;-71
2021/09/03 00:47:53;;;;;;;0.70;0.70;;;;;;;17.89;55.61;101189.75;4961922;28;20042;-73
2021/09/03 00:50:19;;;;;;;0.70;0.70;;;;;;;17.91;55.85;101192.25;4957039;28;20035;-72
2021/09/03 00:52:44;;;;;;;0.50;0.40;;;;;;;17.91;55.77;101186.72;4977517;28;20506;-72
2021/09/03 00:55:10;;;;;;;1.25;0.80;;;;;;;17.91;55.85;101193.06;4952717;28;20512;-73
2021/09/03 00:57:36;;;;;;;0.70;0.70;;;;;;;17.91;55.62;101176.44;4968024;28;20105;-72
2021/09/03 01:00:03;;;;;;;0.40;0.32;;;;;;;17.92;55.38;101182.81;4972232;28;20038;-72
2021/09/03 01:02:28;;;;;;;0.52;0.52;;;;;;;17.90;55.43;101179.50;4954621;28;20461;-73
2021/09/03 01:04:54;;;;;;;0.57;0.57;;;;;;;17.86;55.92;101181.19;4971599;28;20042;-73
2021/09/03 01:07:19;;;;;;;0.50;0.50;;;;;;;17.75;56.06;101175.78;4979544;28;20089;-74
2021/09/03 01:09:45;;;;;;;1.20;0.70;;;;;;;17.71;55.34;101168.38;4979929;28;20073;-73
2021/09/03 01:12:10;;;;;;;0.60;0.60;;;;;;;17.60;55.66;101165.75;4977290;28;20027;-73
2021/09/03 01:14:35;;;;;;;0.77;0.77;;;;;;;17.49;55.93;101167.00;4975999;28;20095;-74
2021/09/03 01:17:02;;;;;;;2.58;1.13;;;;;;;17.34;56.52;101158.88;4944330;28;20488;-75
2021/09/03 01:19:28;;;;;;;1.00;0.63;;;;;;;17.21;56.21;101161.22;4976878;28;20503;-73
2021/09/03 01:21:53;;;;;;;0.98;0.80;;;;;;;17.13;56.59;101163.81;4966110;28;20059;-75
2021/09/03 01:24:20;;;;;;;0.77;0.77;;;;;;;17.05;56.48;101160.56;4944870;28;20474;-75
2021/09/03 01:26:45;;;;;;;1.55;0.75;;;;;;;16.98;56.94;101154.56;4958862;28;20157;-75
2021/09/03 01:29:12;;;;;;;0.98;0.65;;;;;;;16.93;57.05;101147.13;4959942;28;20551;-73
2021/09/03 01:31:39;;;;;;;1.70;0.85;;;;;;;16.92;57.05;101156.56;4977361;28;20027;-74
2021/09/03 01:34:04;;;;;;;0.80;0.80;;;;;;;16.91;56.96;101149.38;4983626;28;20050;-74
2021/09/03 01:36:31;;;;;;;1.20;0.80;;;;;;;16.90;57.27;101149.69;4959792;28;20030;-72
2021/09/03 01:38:58;;;;;;;1.00;0.68;;;;;;;16.88;57.19;101147.19;4977087;28;20161;-72
2021/09/03 01:41:23;;;;;;;1.40;1.30;;;;;;;16.85;57.25;101142.22;4972882;28;20039;-74
2021/09/03 01:43:49;;;;;;;0.63;0.63;;;;;;;16.81;57.19;101138.41;4976279;28;20030;-74
2021/09/03 01:46:15;;;;;;;1.73;0.93;;;;;;;16.78;56.99;101133.47;4976718;28;20121;-74
2021/09/03 01:48:40;;;;;;;1.17;1.08;;;;;;;16.75;57.42;101131.28;4953821;28;20026;-74
2021/09/03 01:51:06;;;;;;;0.55;0.55;;;;;;;16.74;57.39;101130.44;4958843;28;20053;-73
2021/09/03 01:53:31;;;;;;;0.70;0.70;;;;;;;16.72;57.70;101124.41;4943501;28;20098;-74
2021/09/03 01:55:58;;;;;;;0.73;0.73;;;;;;;16.67;57.56;101126.38;4968059;28;20051;-74
2021/09/03 01:58:23;;;;;;;0.70;0.68;;;;;;;16.60;57.71;101118.41;4948355;28;20042;-73
2021/09/03 02:00:49;;;;;;;0.88;0.80;;;;;;;16.52;57.62;101125.41;4964598;28;20086;-74
2021/09/03 02:03:14;;;;;;;0.55;0.55;;;;;;;16.41;57.74;101121.06;4970031;28;20031;-73
2021/09/03 02:05:40;;;;;;;1.00;0.70;;;;;;;16.33;57.85;101116.19;4969880;28;20046;-75
2021/09/03 02:08:06;;;;;;;0.77;0.70;;;;;;;16.27;58.22;101118.16;4975321;28;20030;-75
2021/09/03 02:10:31;;;;;;;0.75;0.70;;;;;;;16.22;58.37;101115.41;4975256;28;20019;-71
2021/09/03 02:12:57;;;;;;;0.65;0.63;;;;;;;16.14;58.08;101108.59;4983497;28;20102;-73
2021/09/03 02:15:22;;;;;;;0.68;0.68;;;;;;;16.12;58.27;101104.44;4957883;28;20035;-73
2021/09/03 02:17:48;;;;;;;0.55;0.50;;;;;;;16.10;58.26;101112.22;4956701;28;20177;-72
2021/09/03 02:20:13;;;;;;;0.73;0.73;;;;;;;16.08;58.62;101104.22;4958283;28;20389;-71
2021/09/03 02:22:39;;;;;;;0.55;0.55;;;;;;;16.09;58.54;101108.63;4973655;28;20046;-72
2021/09/03 02:25:05;;;;;;;0.47;0.40;;;;;;;16.04;58.96;101109.47;4971210;28;20035;-71
2021/09/03 02:27:30;;;;;;;0.77;0.77;;;;;;;15.99;58.62;101111.44;4972204;28;20018;-71
2021/09/03 02:29:55;;;;;;;0.50;0.40;;;;;;;15.94;58.54;101103.22;4951190;28;20033;-72
2021/09/03 02:32:21;;;;;;;0.50;0.50;;;;;;;15.87;58.91;101104.34;4975740;28;20096;-72
2021/09/03 02:34:47;;;;;;;0.50;0.50;;;;;;;15.79;58.69;101095.84;4971923;28;20053;-71
2021/09/03 02:37:16;;;;;;;0.55;0.52;;;;;;;15.69;58.94;101088.44;4966788;28;20477;-73
2021/09/03 02:39:41;;;;;;;0.65;0.65;;;;;;;15.60;59.15;101081.88;4937152;28;20035;-73
2021/09/03 02:42:07;;;;;;;1.80;0.75;;;;;;;15.54;59.65;101090.16;4973094;28;20941;-71
2021/09/03 02:44:32;;;;;;;1.25;1.15;;;;;;;15.46;59.39;101093.53;4961888;28;20422;-74
2021/09/03 02:46:58;;;;;;;2.72;1.00;;;;;;;15.42;59.75;101086.06;4972195;28;20026;-71
2021/09/03 02:49:23;;;;;;;0.80;0.80;;;;;;;15.27;60.02;101064.94;4972212;28;20044;-72
2021/09/03 02:51:49;;;;;;;1.05;0.93;;;;;;;15.28;60.11;101074.84;4976655;28;20478;-70
2021/09/03 02:54:14;;;;;;;1.30;0.85;;;;;;;15.23;60.36;101080.38;4953705;28;20034;-72
2021/09/03 02:56:39;;;;;;;1.02;1.00;;;;;;;15.16;60.24;101070.47;4958665;28;20038;-70
2021/09/03 02:59:05;;;;;;;1.00;0.88;;;;;;;15.12;60.19;101069.38;4964944;28;20124;-71
2021/09/03 03:01:30;;;;;;;0.90;0.90;;;;;;;15.05;60.64;101063.34;4971441;28;20130;-72
2021/09/03 03:03:56;;;;;;;0.95;0.52;;;;;;;15.00;60.69;101066.13;4970996;28;20076;-73
2021/09/03 03:06:21;;;;;;;0.85;0.82;;;;;;;14.93;61.05;101055.41;4949283;28;20501;-72
2021/09/03 03:08:46;;;;;;;0.80;0.80;;;;;;;14.89;60.79;101051.56;4972686;28;20041;-73
2021/09/03 03:11:12;;;;;;;0.60;0.60;;;;;;;14.86;61.04;101059.56;4980631;28;20038;-74
2021/09/03 03:13:37;;;;;;;0.73;0.73;;;;;;;14.79;61.48;101057.94;4973820;28;20037;-74
2021/09/03 03:16:03;;;;;;;0.60;0.60;;;;;;;14.75;61.22;101056.84;4981581;28;20531;-73
2021/09/03 03:18:29;;;;;;;0.75;0.60;;;;;;;14.73;61.28;101052.72;4948154;28;20149;-71
2021/09/03 03:20:55;;;;;;;0.88;0.60;;;;;;;14.71;61.53;101058.50;4953921;28;20199;-75
2021/09/03 03:23:20;;;;;;;0.60;0.60;;;;;;;14.65;61.69;101049.41;4976896;28;20031;-74
2021/09/03 03:25:46;;;;;;;0.75;0.73;;;;;;;14.61;61.61;101050.22;4970624;28;20030;-73
2021/09/03 03:28:12;;;;;;;0.70;0.63;;;;;;;14.58;61.42;101050.78;4936994;28;20070;-72
2021/09/03 03:30:37;;;;;;;0.57;0.57;;;;;;;14.55;62.14;101051.34;4972171;28;20031;-72
2021/09/03 03:33:03;;;;;;;0.60;0.60;;;;;;;14.51;62.40;101039.25;4971973;28;20397;-73
2021/09/03 03:35:28;;;;;;;0.77;0.77;;;;;;;14.48;62.27;101035.94;4972443;28;20039;-75
2021/09/03 03:37:55;;;;;;;2.75;0.90;;;;;;;14.46;61.80;101038.13;4957748;28;20025;-72
2021/09/03 03:40:21;;;;;;;4.80;1.27;;;;;;;14.45;62.19;101030.16;4969887;28;20101;-73
2021/09/03 03:42:46;;;;;;;1.08;0.93;;;;;;;14.44;62.40;101029.34;4971766;28;20130;-73
2021/09/03 03:45:12;;;;;;;1.08;0.98;;;;;;;14.44;62.40;101023.00;4925738;29;20031;-71
2021/09/03 03:47:38;;;;;;;1.45;1.35;;;;;;;14.43;62.67;101027.69;4968074;28;20610;-73
2021/09/03 03:50:05;;;;;;;3.17;1.70;;;;;;;14.45;63.33;101022.72;4975644;28;20023;-72
2021/09/03 03:52:31;;;;;;;1.55;1.45;;;;;;;14.45;63.48;101030.97;4957442;28;20521;-71
2021/09/03 03:54:56;;;;;;;1.63;1.55;;;;;;;14.46;63.80;101037.31;4969774;28;20149;-70
2021/09/03 03:57:24;;;;;;;2.33;1.73;;;;;;;14.46;63.81;101027.13;4968486;28;20477;-73
2021/09/03 03:59:49;;;;;;;1.42;1.33;;;;;;;14.47;63.19;101026.03;4953276;28;20042;-70
2021/09/03 04:02:15;;;;;;;1.30;1.20;;;;;;;14.44;63.56;101023.84;4937321;28;20038;-71
2021/09/03 04:04:40;;;;;;;1.15;1.10;;;;;;;14.35;63.53;101019.97;4972451;28;20027;-70
2021/09/03 04:07:06;;;;;;;2.40;1.13;;;;;;;14.33;63.51;101030.44;4967414;28;20401;-70
2021/09/03 04:09:32;;;;;;;2.40;1.10;;;;;;;14.27;63.79;101029.63;4971823;28;20077;-73
2021/09/03 04:11:57;;;;;;;2.22;1.30;;;;;;;14.22;63.73;101031.56;4970878;28;20086;-71
2021/09/03 04:14:23;;;;;;;2.15;0.93;;;;;;;14.18;64.41;101042.28;4967051;28;20495;-72
2021/09/03 04:16:48;;;;;;;0.80;0.80;;;;;;;14.14;64.08;101036.50;4974277;28;20026;-71
2021/09/03 04:19:14;;;;;;;1.15;1.10;;;;;;;14.12;64.01;101029.66;4969437;28;20034;-70
2021/09/03 04:21:40;;;;;;;1.52;1.20;;;;;;;14.12;64.26;101035.97;4975328;28;20149;-72
2021/09/03 04:24:05;;;;;;;1.08;0.98;;;;;;;14.10;64.44;101046.41;4956530;28;20038;-71
2021/09/03 04:26:31;;;;;;;1.67;0.95;;;;;;;14.07;64.41;101030.44;4980262;28;20034;-72
2021/09/03 04:28:56;;;;;;;2.17;1.55;;;;;;;14.05;64.44;101038.16;4973432;28;20444;-74
2021/09/03 04:31:22;;;;;;;1.45;1.35;;;;;;;14.03;64.69;101029.38;4959608;28;20031;-74
2021/09/03 04:33:47;;;;;;;1.13;1.05;;;;;;;14.02;65.22;101029.63;4977513;28;20146;-73
2021/09/03 04:36:13;;;;;;;1.10;1.10;;;;;;;13.99;65.14;101033.75;4971302;28;20027;-73
2021/09/03 04:38:39;;;;;;;3.05;1.48;;;;;;;13.99;65.39;101022.75;4974106;28;20195;-73
2021/09/03 04:41:05;;;;;;;1.80;1.70;;;;;;;13.97;65.63;101022.19;4983263;28;20038;-74
2021/09/03 04:43:30;;;;;;;1.77;1.67;;;;;;;13.96;65.68;101023.31;4973940;28;20725;-73
2021/09/03 04:45:56;;;;;;;2.85;1.80;;;;;;;13.96;65.52;101026.06;4949643;28;20049;-73
2021/09/03 04:48:21;;;;;;;4.38;2.08;;;;;;;13.96;65.69;101026.88;4972495;28;20034;-73
2021/09/03 04:50:46;;;;;;;2.17;2.05;;;;;;;13.96;65.83;101028.81;4962778;28;20034;-73
2021/09/03 04:53:12;;;;;;;2.72;2.10;;;;;;;13.94;66.05;101023.59;4975946;28;20034;-72
2021/09/03 04:55:37;;;;;;;1.42;1.33;;;;;;;13.94;65.71;101020.84;4982327;28;20030;-73
2021/09/03 04:58:03;;;;;;;2.50;2.30;;;;;;;13.98;66.47;101015.59;4986441;28;20042;-73
2021/09/03 05:00:28;;;;;;;2.40;2.13;;;;;;;14.02;66.29;101022.22;4957337;28;20388;-72
2021/09/03 05:02:54;;;;;;;3.13;1.70;;;;;;;14.02;66.32;101022.22;4977230;28;20030;-70
2021/09/03 05:05:19;;;;;;;2.00;1.90;;;;;;;14.01;66.47;101017.81;4975611;28;20457;-72
2021/09/03 05:07:45;;;;;;;2.17;2.00;;;;;;;14.01;66.50;101015.06;4986498;28;20029;-71
2021/09/03 05:10:11;;;;;;;6.38;2.03;;;;;;;13.99;66.69;101017.25;4986104;28;20030;-74
2021/09/03 05:12:38;;;;;;;2.13;1.98;;;;;;;13.95;66.58;101021.66;4978632;28;20026;-73
2021/09/03 05:15:10;;;;;;;2.33;2.22;;;;;;;13.95;66.96;101016.16;4970362;28;20027;-74
2021/09/03 05:17:36;;;;;;;2.45;2.25;;;;;;;13.92;66.73;101011.22;4976549;28;20686;-75
2021/09/03 05:20:03;;;;;;;2.08;1.98;;;;;;;13.91;67.30;101020.56;4968766;28;20045;-70
2021/09/03 05:22:31;;;;;;;2.33;2.13;;;;;;;13.88;66.92;101015.59;4978995;28;20108;-72
2021/09/03 05:24:57;;;;;;;2.60;2.42;;;;;;;13.87;67.11;101013.94;4976028;28;20031;-73
2021/09/03 05:27:22;;;;;;;2.70;2.50;;;;;;;13.82;67.08;101012.03;4975689;28;20030;-73
2021/09/03 05:29:48;;;;;;;2.55;2.35;;;;;;;13.82;67.54;101016.69;4958888;28;20030;-73
2021/09/03 05:32:13;;;;;;;6.50;2.35;;;;;;;13.81;67.67;101015.03;4976565;28;20423;-72
2021/09/03 05:34:39;;;;;;;3.03;1.85;;;;;;;13.81;67.11;101009.53;4979441;28;20063;-74
2021/09/03 05:37:04;;;;;;;2.00;1.90;;;;;;;13.81;67.18;101015.84;4979125;28;20054;-73
2021/09/03 05:39:30;;;;;;;2.10;1.90;;;;;;;13.81;67.73;101006.81;4968442;28;20026;-74
2021/09/03 05:41:55;;;;;;;2.72;1.38;;;;;;;13.86;67.87;101017.81;4943495;28;20072;-72
2021/09/03 05:44:20;;;;;;;1.90;1.80;;;;;;;13.92;67.42;101011.22;4975813;28;20037;-71
2021/09/03 05:46:46;;;;;;;2.95;2.42;;;;;;;14.01;67.59;101019.75;4975190;28;20090;-73
2021/09/03 05:49:11;;;;;;;2.05;1.90;;;;;;;14.11;67.33;101017.00;4943604;28;20030;-72
2021/09/03 05:51:37;;;;;;;2.75;1.85;;;;;;;14.20;67.68;101023.56;4941178;28;20041;-70
2021/09/03 05:54:07;;;;;;;2.10;2.00;;;;;;;14.31;67.57;101021.66;4958093;28;20027;-75
2021/09/03 05:56:33;;;;;;;2.17;2.00;;;;;;;14.45;67.41;101019.97;4972688;28;20055;-71
2021/09/03 05:58:59;;;;;;;1.92;1.83;;;;;;;14.56;67.62;101025.44;4977882;28;20022;-74
2021/09/03 06:01:28;;;;;;;2.95;2.55;;;;;;;14.63;67.62;101023.28;4977422;28;20038;-74
2021/09/03 06:03:53;;;;;;;4.13;2.15;;;;;;;14.69;67.27;101013.91;4962433;28;20019;-74
2021/09/03 06:06:19;;;;;;;3.25;2.95;;;;;;;14.83;66.99;101020.50;4959120;28;20042;-73
2021/09/03 06:08:45;;;;;;;4.28;2.28;;;;;;;14.94;67.24;101023.22;4942939;28;20035;-72
2021/09/03 06:11:10;;;;;;;2.00;1.90;;;;;;;15.04;66.79;101017.66;4977405;28;20418;-75
2021/09/03 06:13:36;;;;;;;2.25;2.15;;;;;;;15.15;66.55;101022.00;4978490;28;20037;-72
2021/09/03 06:16:01;;;;;;;1.90;1.80;;;;;;;15.28;66.31;101030.78;4979025;28;20093;-78
2021/09/03 06:18:27;;;;;;;2.90;1.85;;;;;;;15.39;66.25;101026.03;4954202;28;20035;-72
2021/09/03 06:20:52;;;;;;;1.60;1.50;;;;;;;15.49;66.07;101026.81;4975090;28;20568;-73
2021/09/03 06:23:18;;;;;;;1.92;1.73;;;;;;;15.59;66.14;101025.09;4977925;28;20041;-76
2021/09/03 06:25:43;;;;;;;3.53;2.75;;;;;;;15.65;66.15;101024.78;4967371;28;20497;-78
2021/09/03 06:28:09;;;;;;;2.13;1.88;;;;;;;15.75;66.16;101023.88;4957944;28;20031;-72
2021/09/03 06:30:34;;;;;;;2.00;1.90;;;;;;;15.81;65.93;101022.78;4973241;28;20035;-72
2021/09/03 06:33:06;;;;;;;2.15;2.05;;;;;;;15.93;66.11;101014.13;4920177;28;20141;-72
2021/09/03 06:35:32;;;;;;;4.38;2.53;;;;;;;16.01;65.73;101015.44;4953704;28;20128;-72
2021/09/03 06:37:57;;;;;;;2.85;2.65;;;;;;;16.16;65.19;101022.75;4974447;28;20495;-71
2021/09/03 06:40:23;;;;;;;3.50;2.97;;;;;;;16.25;65.04;101021.03;4957155;28;20042;-72
2021/09/03 06:42:48;;;;;;;3.25;2.92;;;;;;;16.37;64.73;101023.41;4969125;28;20038;-71
2021/09/03 06:45:13;;;;;;;5.43;2.38;;;;;;;16.46;64.59;101021.66;4977817;28;20408;-71
2021/09/03 06:47:39;;;;;;;4.07;2.67;;;;;;;16.56;64.17;101021.56;4970782;28;20048;-72
2021/09/03 06:50:06;;;;;;;4.53;3.20;;;;;;;16.67;64.15;101015.94;4961673;28;20161;-74
2021/09/03 06:52:35;;;;;;;5.22;3.30;;;;;;;16.75;63.94;101013.34;4961794;28;20031;-80
2021/09/03 06:55:02;;;;;;;3.08;2.60;;;;;;;16.86;63.89;101013.22;4957996;28;20069;-72
2021/09/03 06:57:31;;;;;;;2.78;2.58;;;;;;;17.00;63.63;101016.16;4974039;28;20030;-75
2021/09/03 06:59:57;;;;;;;6.32;3.33;;;;;;;17.13;63.40;101018.19;4959667;28;20081;-77
2021/09/03 07:02:23;;;;;;;3.67;3.38;;;;;;;17.30;62.57;101022.38;4971330;28;20038;-71
2021/09/03 07:04:48;;;;;;;2.78;2.65;;;;;;;17.41;62.62;101012.84;4953352;28;20034;-72
2021/09/03 07:07:14;;;;;;;2.60;2.00;;;;;;;17.53;62.39;101015.97;4969600;28;20034;-70
2021/09/03 07:09:39;;;;;;;2.60;2.40;;;;;;;17.63;62.14;101024.13;4951035;28;20034;-71
2021/09/03 07:12:05;;;;;;;5.95;2.92;;;;;;;17.71;62.20;101019.03;4974960;28;20453;-72
2021/09/03 07:14:30;;;;;;;3.75;2.75;;;;;;;17.82;61.68;101028.84;4970865;28;20039;-72
2021/09/03 07:16:56;;;;;;;3.92;2.65;;;;;;;17.92;61.49;101022.34;4953834;28;20479;-71
2021/09/03 07:19:21;;;;;;;2.88;2.08;;;;;;;18.03;61.27;101017.47;4950698;28;20030;-71
2021/09/03 07:21:47;;;;;;;5.95;3.20;;;;;;;18.12;60.82;101010.09;4951907;28;20031;-71
2021/09/03 07:24:13;;;;;;;6.38;2.90;;;;;;;18.21;60.50;101019.38;4971458;28;20023;-70
2021/09/03 07:26:38;;;;;;;4.72;2.45;;;;;;;18.28;60.52;101014.28;4973056;28;20433;-71
2021/09/03 07:29:05;;;;;;;4.65;2.25;;;;;;;18.43;59.88;101020.66;4958656;28;20027;-71
2021/09/03 07:31:32;;;;;;;2.13;1.58;;;;;;;18.56;60.04;101017.09;4953254;28;20458;-72
2021/09/03 07:33:57;;;;;;;3.15;1.77;;;;;;;18.73;60.08;101015.66;4971693;28;20067;-71
2021/09/03 07:36:23;;;;;;;2.22;1.15;;;;;;;18.89;59.29;101016.22;4965390;28;20073;-74
2021/09/03 07:38:49;;;;;;;1.77;1.48;;;;;;;19.01;59.23;101014.56;4973685;28;20023;-70
2021/09/03 07:41:14;;;;;;;3.40;1.83;;;;;;;19.15;58.79;101010.97;4972486;28;20031;-71
2021/09/03 07:43:58;;;;;;;;;;;;;;;;;;;;;
2021/09/03 07:46:27;;;;;;;2.70;2.50;;;;;;;19.41;57.84;100999.31;4969587;28;20809;-70
2021/09/03 07:48:55;;;;;;;3.55;3.13;;;;;;;19.50;56.99;101008.53;4969587;28;20113;-72
2021/09/03 07:51:23;;;;;;;2.20;2.00;;;;;;;19.63;57.01;101009.63;4969276;28;20054;-72
2021/09/03 07:53:50;;;;;;;2.55;2.35;;;;;;;19.69;56.63;101011.16;4971225;28;20025;-73
2021/09/03 07:56:20;;;;;;;3.03;2.83;;;;;;;19.82;56.24;101009.50;4969141;28;20037;-71
2021/09/03 07:58:48;;;;;;;3.15;2.40;;;;;;;19.88;56.17;101005.47;4975624;28;20073;-72
2021/09/03 08:01:16;;;;;;;4.25;2.38;;;;;;;20.01;55.52;101012.91;4949967;28;20046;-69
2021/09/03 08:03:41;;;;;;;7.03;2.40;;;;;;;20.10;55.16;101012.16;4973031;28;20031;-71
2021/09/03 08:06:07;;;;;;;4.13;2.70;;;;;;;20.21;55.29;101011.56;4968036;28;21048;-70
2021/09/03 08:08:35;;;;;;;2.83;2.10;;;;;;;20.34;54.42;101018.19;4969446;28;20768;-71
2021/09/03 08:11:03;;;;;;;3.13;2.17;;;;;;;20.39;54.60;100995.81;4969956;28;20126;-70
2021/09/03 08:13:36;;;;;;;2.55;2.00;;;;;;;20.53;54.77;100994.88;4972340;28;20025;-72
2021/09/03 08:16:09;;;;;;;5.65;2.00;;;;;;;20.70;53.70;101000.56;4949730;28;20595;-73
2021/09/03 08:18:35;;;;;;;2.78;2.38;;;;;;;20.87;53.71;101013.72;4972000;28;20218;-70
2021/09/03 08:21:08;;;;;;;4.03;2.17;;;;;;;21.00;53.68;101008.38;4966290;28;20062;-70
2021/09/03 08:23:34;;;;;;;1.55;1.45;;;;;;;21.07;53.34;101006.75;4969017;28;20050;-69
2021/09/03 08:26:07;;;;;;;2.97;2.00;;;;;;;21.16;53.01;101014.28;4949671;28;20415;-70
2021/09/03 08:28:35;;;;;;;3.97;2.20;;;;;;;21.23;52.35;101011.84;4969848;28;20034;-70
2021/09/03 08:31:06;;;;;;;2.38;2.17;;;;;;;21.22;52.55;101013.00;4937524;28;20070;-70
2021/09/03 08:33:33;;;;;;;3.15;2.08;;;;;;;21.29;52.25;101005.00;4954868;28;20055;-71
2021/09/03 08:36:01;;;;;;;3.25;2.05;;;;;;;21.34;51.86;100998.44;4975208;28;20022;-71
2021/09/03 08:38:26;;;;;;;2.33;2.13;;;;;;;21.37;51.82;101006.94;4963045;28;20022;-72
2021/09/03 08:40:55;;;;;;;4.03;2.55;;;;;;;21.40;51.39;101000.72;4972001;28;20023;-70
2021/09/03 08:43:21;;;;;;;4.07;2.70;;;;;;;21.45;51.29;100997.81;4969232;28;20055;-70
2021/09/03 08:45:46;;;;;;;2.97;2.50;;;;;;;21.59;51.25;101008.00;4952179;28;20029;-70
2021/09/03 08:48:16;;;;;;;2.97;2.65;;;;;;;21.70;50.95;101012.09;4971551;28;20039;-71
2021/09/03 08:50:42;;;;;;;2.08;1.98;;;;;;;21.87;51.04;101004.88;4971838;28;20031;-72
2021/09/03 08:53:08;;;;;;;5.38;2.60;;;;;;;22.03;50.69;101017.13;4967598;28;20117;-71
2021/09/03 08:55:34;;;;;;;3.90;2.30;;;;;;;22.18;50.50;101009.41;4970182;28;20130;-72
2021/09/03 08:57:59;;;;;;;2.63;2.42;;;;;;;22.29;50.13;101013.50;4949173;28;20034;-72
2021/09/03 09:00:33;;;;;;;2.65;2.17;;;;;;;22.45;50.25;101022.16;4965716;28;20046;-72
2021/09/03 09:03:15;;;;;;;3.63;2.25;;;;;;;22.75;50.34;101020.25;4950159;28;20027;-71
2021/09/03 09:05:43;;;;;;;3.72;2.75;;;;;;;23.00;49.45;101014.91;4961771;28;20476;-72
2021/09/03 09:08:09;;;;;;;3.67;2.80;;;;;;;23.16;48.77;101015.97;4974586;28;20077;-75
2021/09/03 09:10:35;;;;;;;5.47;2.60;;;;;;;23.37;47.77;101017.97;4956788;28;20358;-78
2021/09/03 09:13:00;;;;;;;2.47;1.50;;;;;;;23.65;48.35;101018.25;4957229;28;20042;-76
2021/09/03 09:15:26;;;;;;;2.78;2.58;;;;;;;23.92;47.50;101015.25;4940373;28;20030;-72
2021/09/03 09:17:52;;;;;;;1.50;1.40;;;;;;;24.34;48.14;101010.41;4973665;28;20046;-72
2021/09/03 09:20:19;;;;;;;2.83;2.50;;;;;;;24.82;47.20;101013.63;4946082;28;20093;-73
2021/09/03 09:22:57;;;;;;;2.33;2.13;;;;;;;25.07;45.98;101013.63;4973278;28;20029;-73
2021/09/03 09:25:26;;;;;;;3.60;2.72;;;;;;;25.03;44.30;101012.72;4970782;28;20034;-74
2021/09/03 09:27:51;;;;;;;3.13;2.88;;;;;;;25.05;44.68;101010.38;4972325;28;20019;-73
2021/09/03 09:30:23;;;;;;;2.85;2.53;;;;;;;25.26;45.08;101016.66;4957669;28;20034;-73
2021/09/03 09:33:20;;;;;;;2.35;2.15;;;;;;;25.59;44.78;101006.47;4974077;28;20485;-71
2021/09/03 09:35:47;;;;;;;3.90;2.67;;;;;;;25.87;43.36;101006.47;4960953;28;20037;-69
2021/09/03 09:38:16;;;;;;;2.60;2.45;;;;;;;26.07;43.74;100998.25;4970737;28;20511;-72
2021/09/03 09:40:51;;;;;;;3.40;3.15;;;;;;;26.50;43.16;101009.78;4970548;28;20046;-77
2021/09/03 09:46:26;;;;;;;4.53;3.45;;;;;;;27.82;41.75;101000.06;4963886;28;20038;-73
2021/09/03 09:48:53;;;;;;;3.50;3.20;;;;;;;28.84;41.24;101009.16;4952350;28;20033;-77
2021/09/03 09:51:43;;;;;;;3.10;2.72;;;;;;;29.98;39.41;101003.53;4978445;28;20461;-73
2021/09/03 09:58:20;;;;;;;2.38;2.13;;;;;;;33.27;36.54;101011.56;4884329;29;20596;-73
2021/09/03 10:00:45;;;;;;;4.85;2.28;;;;;;;33.99;34.72;100997.13;4909275;29;20027;-71
2021/09/03 10:03:17;;;;;;;3.47;2.65;;;;;;;34.71;32.69;101013.63;4937958;28;20053;-73
2021/09/03 10:05:44;;;;;;;3.00;2.58;;;;;;;35.11;32.06;100988.53;4947507;28;20098;-74
2021/09/03 10:08:12;;;;;;;3.60;2.25;;;;;;;35.71;30.80;100993.94;4938018;28;20250;-70
2021/09/03 10:10:40;;;;;;;1.83;1.73;;;;;;;36.15;30.15;100994.97;4970724;28;20027;-71
2021/09/03 10:13:15;;;;;;;1.80;1.70;;;;;;;36.77;30.48;100991.97;4977765;28;20066;-72
2021/09/03 10:15:46;;;;;;;3.13;1.10;;;;;;;37.62;29.99;101005.81;4935471;28;20034;-71
2021/09/03 10:18:16;;;;;;;2.22;1.83;;;;;;;38.18;28.26;100999.25;4957956;28;20034;-73
2021/09/03 10:20:42;;;;;;;2.08;1.98;;;;;;;38.56;26.51;101007.31;4969332;28;20042;-72
2021/09/03 10:23:31;;;;;;;1.80;1.40;;;;;;;38.85;26.49;100997.25;4973010;28;20038;-75
2021/09/03 10:26:06;;;;;;;;;;;;;;;;;;;;;
2021/09/03 10:28:32;;;;;;;2.28;1.67;;;;;;;39.68;25.42;101001.47;4974685;28;20037;-76
2021/09/03 10:31:10;;;;;;;1.25;1.23;;;;;;;40.31;25.32;100999.91;4959760;28;20455;-73
2021/09/03 10:33:41;;;;;;;1.52;1.38;;;;;;;40.70;24.23;100991.28;4954669;28;20120;-72
2021/09/03 10:43:07;;;;;;;;;;;;;;;;;;;;;
2021/09/03 10:45:43;;;;;;;1.90;1.80;;;;;;;41.50;22.00;100987.16;4966216;28;20025;-73
2021/09/03 10:48:31;;;;;;;2.20;1.88;;;;;;;41.24;21.34;100985.69;4960759;28;20039;-71
2021/09/03 10:50:59;;;;;;;2.40;1.13;;;;;;;40.87;21.74;100980.41;4965116;28;20022;-71
2021/09/03 10:53:43;;;;;;;1.27;1.17;;;;;;;40.90;22.34;100973.78;4950613;28;20544;-71
2021/09/03 10:56:14;;;;;;;1.27;1.25;;;;;;;41.19;21.94;100972.75;4968935;28;20035;-71
2021/09/03 10:58:52;;;;;;;1.63;1.52;;;;;;;41.04;21.33;100965.94;4965648;28;20125;-71
2021/09/03 11:01:24;;;;;;;2.70;2.05;;;;;;;40.38;21.37;100984.56;4962300;28;20034;-70
2021/09/03 11:04:10;;;;;;;2.05;1.95;;;;;;;39.37;21.50;100969.66;4971123;28;21380;-69
2021/09/03 11:06:54;;;;;;;1.90;1.80;;;;;;;38.72;22.06;100963.69;4972328;28;20046;-71
2021/09/03 11:09:28;;;;;;;4.95;3.08;;;;;;;38.53;21.36;100950.31;4975213;28;20039;-72
2021/09/03 11:12:05;;;;;;;2.45;2.35;;;;;;;37.60;21.85;100962.63;4972907;28;20395;-72
2021/09/03 11:14:41;;;;;;;;;;;;;;;;;;;;;
2021/09/03 11:17:11;;;;;;;2.38;2.17;;;;;;;35.11;23.60;100940.22;4969220;28;20394;-71
2021/09/03 11:19:45;;;;;;;2.72;2.63;;;;;;;34.05;24.08;100938.72;4973326;28;20487;-71
2021/09/03 11:22:22;;;;;;;2.03;1.93;;;;;;;33.53;25.30;100956.41;4971770;28;20026;-70
2021/09/03 11:25:03;;;;;;;2.35;1.90;;;;;;;33.92;25.93;100953.41;4967998;28;20358;-71
2021/09/03 11:27:41;;;;;;;1.80;1.70;;;;;;;34.65;25.84;100944.34;4970934;28;20030;-71
2021/09/03 11:30:17;;;;;;;1.48;1.38;;;;;;;35.68;25.72;100940.75;4945260;28;20034;-73
2021/09/03 11:32:48;;;;;;;1.90;1.80;;;;;;;35.96;25.01;100931.81;4944575;28;20050;-71
2021/09/03 11:35:15;;;;;;;1.75;1.55;;;;;;;35.86;24.16;100929.94;4960152;28;20046;-70
2021/09/03 11:37:42;;;;;;;3.10;2.55;;;;;;;35.32;23.86;100938.38;4947819;28;20042;-70
2021/09/03 11:40:34;;;;;;;2.65;2.38;;;;;;;34.60;24.46;100934.22;4969723;28;20033;-71
2021/09/03 11:43:08;;;;;;;1.27;1.27;;;;;;;34.18;25.01;100928.47;4961373;28;20474;-72
2021/09/03 11:45:43;;;;;;;1.30;1.27;;;;;;;34.04;25.65;100920.88;4954976;28;20481;-73